Lee, Massachusetts
Current Conditions -  °F | °C
As of 6:54 PM on Sunday 25 Jan 2015 (Local Time) from KPSF Reporting Station
Clear Clear  
Wind Chill:   Ceiling: Unl
Heat Index: 16°   Visibility: 10mi
Dew Point:   Wind: 9mph
Humidity: 54%   Direction: 310°NW
Pressure: 29.86"   Gusts: NA
Location:  42.3°N, 73.25°W
Report Text: KPSF 252354Z AUTO 31008KT 10SM CLR M09/M17 A2986 RMK AO2 SLP129 T10891167 11039 21089 53034
Loading
Personal Weather Stations






























Interactive Weather Map New forecast layout! Learn more

10-Day Weather Forecast

Advertisements
Track Severe Weather on mobile